Terminal Aerodrome Forecast
Issued by NWS Twin Cities, MN

Home | Current Version | Previous Version | Graphics & Text | Print | Product List | Glossary On
Versions: 1 2 3 4 5 6 7 8 9 10 11 12 13 14 15 16 17
000
FTUS43 KMPX 312300 RRA
TAFSTC
TAF
KSTC 312340Z 0100/0124 19010KT 5SM -TSRA SCT035CB BKN070
      TEMPO 0100/0101 2SM TSRA OVC035CB
     FM010300 21006KT P6SM SCT020 BKN090
     FM010600 26005KT 5SM BR SCT010 BKN150
     FM011200 30008KT 5SM BR BKN015
     FM011600 31012KT P6SM BKN040=

USA.gov is the U.S. government's official web portal to all federal, state and local government web resources and services.